CheckWX is a tool to help pilots better visualize weather data.  It is not intended as a substitute for an official pre-flight weather briefing.

06:57:03 UTC

EFOU TAF
Oulu Airport
Oulu / Oulunsalo, Finland
TAF EFOU 190535Z 1906/2006 25009KT CAVOK TEMPO 1906/1908 5000 SHRA SCT020CB PROB30 1906/1908 TS

Jun-19@
06:00 UTC

Jun-19 @ 06:00 UTC

Jun-20@
06:00 UTC

Jun-20 @ 06:00 UTC

TAF EFOU 190535Z 1906/2006 25009KT CAVOK
Wind
  • 250° at 9 KTS
Conditions
No significant weather
Cloud Levels
  • No significant clouds

Jun-19@
06:00 UTC

Jun-19 @ 06:00 UTC

Jun-19@
08:00 UTC

Jun-19 @ 08:00 UTC

PROB30 1906/1908 TS

Probable - 30% Likelihood

Probable - 30% Likelihood during this time.

Conditions
Thunderstorm

Jun-19@
06:00 UTC

Jun-19 @ 06:00 UTC

Jun-19@
08:00 UTC

Jun-19 @ 08:00 UTC

TEMPO 1906/1908 5000 SHRA SCT020CB

Temporary

Temporary Changes expected for less than half the time period

Conditions
Rain
Cloud Levels
  • Scattered at 2,000' AGL